KPNM

Princeton Municipal Airport

Princeton, Minnesota, USA
METAR KPNM 211955Z AUTO 34004KT 10SM CLR 03/M02 A2997 RMK AO2 TSNO
Observed Flight Rules
Jan-21 @ 19:55 UTC (35 minutes ago) Visual Flight Rules
Wind Visibility Clouds
340° at 4 knots 10 miles
  • Clear skies
Temperatures Readings
Current 3°C / 37°F
Dewpoint -2°C / 28°F
Humidity 70%
Altimeter 29.97" Hg
Pressure 1015 hPa
Elevation 298
METAR KPNM 211955Z AUTO 34004KT 10SM CLR 03/M02 A2997 RMK AO2 TSNO
Observed Flight Rules
Jan-21 @ 19:55 UTC
(35 minutes ago)
VFR
Wind Visibility
340° at 4 knots 10 miles
Clouds
  • Clear skies
Temperature Dewpoint
3°C / 37°F -2°C / 28°F
Humidity Altimeter Pressure
70% 29.97" Hg 1015 hPa